sensor_id;sensor_type;location;lat;lon;timestamp;P1;durP1;ratioP1;P2;durP2;ratioP2
49488;SDS011;35382;51.484;11.476;2024-02-04T00:02:11;26.70;;;11.52;;
49488;SDS011;35382;51.484;11.476;2024-02-04T00:04:36;24.05;;;12.27;;
49488;SDS011;35382;51.484;11.476;2024-02-04T00:07:01;25.77;;;11.70;;
49488;SDS011;35382;51.484;11.476;2024-02-04T00:09:27;19.73;;;10.88;;
49488;SDS011;35382;51.484;11.476;2024-02-04T00:11:54;21.63;;;10.70;;
49488;SDS011;35382;51.484;11.476;2024-02-04T00:14:20;20.13;;;10.10;;
49488;SDS011;35382;51.484;11.476;2024-02-04T00:16:45;19.50;;;9.75;;
49488;SDS011;35382;51.484;11.476;2024-02-04T00:19:10;20.17;;;9.57;;
49488;SDS011;35382;51.484;11.476;2024-02-04T00:21:36;20.48;;;10.20;;
49488;SDS011;35382;51.484;11.476;2024-02-04T00:24:04;18.17;;;10.23;;
49488;SDS011;35382;51.484;11.476;2024-02-04T00:26:30;20.15;;;10.30;;
49488;SDS011;35382;51.484;11.476;2024-02-04T00:28:55;18.58;;;9.38;;
49488;SDS011;35382;51.484;11.476;2024-02-04T00:31:20;19.10;;;9.38;;
49488;SDS011;35382;51.484;11.476;2024-02-04T00:33:46;19.60;;;9.68;;
49488;SDS011;35382;51.484;11.476;2024-02-04T00:36:11;18.10;;;9.18;;
49488;SDS011;35382;51.484;11.476;2024-02-04T00:38:39;18.45;;;9.27;;
49488;SDS011;35382;51.484;11.476;2024-02-04T00:41:05;19.35;;;10.00;;
49488;SDS011;35382;51.484;11.476;2024-02-04T00:43:30;21.48;;;10.35;;
49488;SDS011;35382;51.484;11.476;2024-02-04T00:45:55;23.30;;;11.13;;
49488;SDS011;35382;51.484;11.476;2024-02-04T00:48:21;19.05;;;10.10;;
49488;SDS011;35382;51.484;11.476;2024-02-04T00:50:47;21.00;;;10.80;;
49488;SDS011;35382;51.484;11.476;2024-02-04T00:53:13;23.95;;;11.00;;
49488;SDS011;35382;51.484;11.476;2024-02-04T00:55:38;24.92;;;11.25;;
49488;SDS011;35382;51.484;11.476;2024-02-04T00:58:03;25.30;;;10.15;;
49488;SDS011;35382;51.484;11.476;2024-02-04T01:00:29;23.60;;;11.75;;
49488;SDS011;35382;51.484;11.476;2024-02-04T01:02:54;24.25;;;12.18;;
49488;SDS011;35382;51.484;11.476;2024-02-04T01:05:20;26.33;;;12.00;;
49488;SDS011;35382;51.484;11.476;2024-02-04T01:07:46;25.48;;;11.50;;
49488;SDS011;35382;51.484;11.476;2024-02-04T01:10:11;24.75;;;11.45;;
49488;SDS011;35382;51.484;11.476;2024-02-04T01:12:39;22.98;;;11.65;;
49488;SDS011;35382;51.484;11.476;2024-02-04T01:15:05;28.77;;;12.88;;
49488;SDS011;35382;51.484;11.476;2024-02-04T01:17:32;35.42;;;13.05;;
49488;SDS011;35382;51.484;11.476;2024-02-04T01:19:57;30.50;;;12.75;;
49488;SDS011;35382;51.484;11.476;2024-02-04T01:22:22;32.78;;;14.52;;
49488;SDS011;35382;51.484;11.476;2024-02-04T01:24:48;32.33;;;13.52;;
49488;SDS011;35382;51.484;11.476;2024-02-04T01:27:14;36.78;;;14.70;;
49488;SDS011;35382;51.484;11.476;2024-02-04T01:29:39;40.25;;;15.05;;
49488;SDS011;35382;51.484;11.476;2024-02-04T01:32:05;32.00;;;13.90;;
49488;SDS011;35382;51.484;11.476;2024-02-04T01:34:31;33.10;;;14.57;;
49488;SDS011;35382;51.484;11.476;2024-02-04T01:36:57;36.65;;;15.38;;
49488;SDS011;35382;51.484;11.476;2024-02-04T01:39:22;35.75;;;15.57;;
49488;SDS011;35382;51.484;11.476;2024-02-04T01:41:47;36.63;;;15.00;;
49488;SDS011;35382;51.484;11.476;2024-02-04T01:44:13;35.72;;;15.90;;
49488;SDS011;35382;51.484;11.476;2024-02-04T01:46:38;36.13;;;15.48;;
49488;SDS011;35382;51.484;11.476;2024-02-04T01:49:04;36.92;;;16.83;;
49488;SDS011;35382;51.484;11.476;2024-02-04T01:51:31;38.22;;;15.95;;
49488;SDS011;35382;51.484;11.476;2024-02-04T01:53:56;39.33;;;16.52;;
49488;SDS011;35382;51.484;11.476;2024-02-04T01:56:22;38.88;;;15.00;;
49488;SDS011;35382;51.484;11.476;2024-02-04T01:58:47;44.95;;;17.40;;
49488;SDS011;35382;51.484;11.476;2024-02-04T02:01:13;45.22;;;17.30;;
49488;SDS011;35382;51.484;11.476;2024-02-04T02:03:38;44.60;;;17.35;;
49488;SDS011;35382;51.484;11.476;2024-02-04T02:06:04;43.33;;;17.38;;
49488;SDS011;35382;51.484;11.476;2024-02-04T02:08:32;43.78;;;16.67;;
49488;SDS011;35382;51.484;11.476;2024-02-04T02:11:09;48.90;;;18.45;;
49488;SDS011;35382;51.484;11.476;2024-02-04T02:13:38;43.75;;;16.95;;
49488;SDS011;35382;51.484;11.476;2024-02-04T02:16:10;45.40;;;18.17;;
49488;SDS011;35382;51.484;11.476;2024-02-04T02:24:38;47.75;;;17.60;;
49488;SDS011;35382;51.484;11.476;2024-02-04T02:27:04;51.13;;;18.30;;
49488;SDS011;35382;51.484;11.476;2024-02-04T02:29:29;57.38;;;18.90;;
49488;SDS011;35382;51.484;11.476;2024-02-04T02:31:55;51.10;;;18.23;;
49488;SDS011;35382;51.484;11.476;2024-02-04T02:34:20;46.83;;;16.35;;
49488;SDS011;35382;51.484;11.476;2024-02-04T02:36:49;46.00;;;17.45;;
49488;SDS011;35382;51.484;11.476;2024-02-04T02:39:21;46.72;;;16.67;;
49488;SDS011;35382;51.484;11.476;2024-02-04T02:41:50;44.63;;;17.08;;
49488;SDS011;35382;51.484;11.476;2024-02-04T02:44:17;38.40;;;15.48;;
49488;SDS011;35382;51.484;11.476;2024-02-04T02:46:44;36.90;;;15.57;;
49488;SDS011;35382;51.484;11.476;2024-02-04T02:49:11;41.60;;;15.35;;
49488;SDS011;35382;51.484;11.476;2024-02-04T02:51:37;37.67;;;14.00;;
49488;SDS011;35382;51.484;11.476;2024-02-04T02:54:02;41.00;;;14.63;;
49488;SDS011;35382;51.484;11.476;2024-02-04T02:56:28;37.38;;;14.48;;
49488;SDS011;35382;51.484;11.476;2024-02-04T02:58:53;41.10;;;15.70;;
49488;SDS011;35382;51.484;11.476;2024-02-04T03:01:18;38.05;;;14.60;;
49488;SDS011;35382;51.484;11.476;2024-02-04T03:03:44;40.13;;;14.30;;
49488;SDS011;35382;51.484;11.476;2024-02-04T03:06:09;36.85;;;14.93;;
49488;SDS011;35382;51.484;11.476;2024-02-04T03:08:35;34.67;;;13.57;;
49488;SDS011;35382;51.484;11.476;2024-02-04T03:11:01;29.45;;;12.48;;
49488;SDS011;35382;51.484;11.476;2024-02-04T03:13:26;33.88;;;13.05;;
49488;SDS011;35382;51.484;11.476;2024-02-04T03:15:51;31.00;;;13.05;;
49488;SDS011;35382;51.484;11.476;2024-02-04T03:18:17;25.83;;;11.77;;
49488;SDS011;35382;51.484;11.476;2024-02-04T03:20:42;26.33;;;11.10;;
49488;SDS011;35382;51.484;11.476;2024-02-04T03:23:07;25.90;;;11.27;;
49488;SDS011;35382;51.484;11.476;2024-02-04T03:25:33;27.23;;;11.32;;
49488;SDS011;35382;51.484;11.476;2024-02-04T03:27:58;25.40;;;10.10;;
49488;SDS011;35382;51.484;11.476;2024-02-04T03:30:24;23.98;;;10.73;;
49488;SDS011;35382;51.484;11.476;2024-02-04T03:32:50;20.20;;;9.45;;
49488;SDS011;35382;51.484;11.476;2024-02-04T03:35:16;23.52;;;10.45;;
49488;SDS011;35382;51.484;11.476;2024-02-04T03:37:42;20.15;;;10.07;;
49488;SDS011;35382;51.484;11.476;2024-02-04T03:40:08;19.58;;;10.00;;
49488;SDS011;35382;51.484;11.476;2024-02-04T03:42:34;19.38;;;9.57;;
49488;SDS011;35382;51.484;11.476;2024-02-04T03:45:02;20.65;;;9.02;;
49488;SDS011;35382;51.484;11.476;2024-02-04T03:47:27;17.40;;;9.20;;
49488;SDS011;35382;51.484;11.476;2024-02-04T03:49:52;18.88;;;8.95;;
49488;SDS011;35382;51.484;11.476;2024-02-04T03:52:18;19.98;;;8.27;;
49488;SDS011;35382;51.484;11.476;2024-02-04T03:54:43;18.77;;;8.73;;
49488;SDS011;35382;51.484;11.476;2024-02-04T03:57:09;18.27;;;8.38;;
49488;SDS011;35382;51.484;11.476;2024-02-04T03:59:34;21.40;;;8.82;;
49488;SDS011;35382;51.484;11.476;2024-02-04T04:01:59;19.63;;;9.27;;
49488;SDS011;35382;51.484;11.476;2024-02-04T04:04:25;24.38;;;11.52;;
49488;SDS011;35382;51.484;11.476;2024-02-04T04:06:50;27.27;;;12.43;;
49488;SDS011;35382;51.484;11.476;2024-02-04T04:09:16;27.20;;;11.48;;
49488;SDS011;35382;51.484;11.476;2024-02-04T04:11:41;27.98;;;12.02;;
49488;SDS011;35382;51.484;11.476;2024-02-04T04:14:06;28.00;;;12.02;;
49488;SDS011;35382;51.484;11.476;2024-02-04T04:16:32;30.88;;;12.73;;
49488;SDS011;35382;51.484;11.476;2024-02-04T04:18:57;28.80;;;12.20;;
49488;SDS011;35382;51.484;11.476;2024-02-04T04:21:22;31.08;;;13.15;;
49488;SDS011;35382;51.484;11.476;2024-02-04T04:23:48;34.63;;;13.25;;
49488;SDS011;35382;51.484;11.476;2024-02-04T04:26:13;30.13;;;11.65;;
49488;SDS011;35382;51.484;11.476;2024-02-04T04:28:39;28.50;;;12.88;;
49488;SDS011;35382;51.484;11.476;2024-02-04T04:31:04;29.58;;;11.55;;
49488;SDS011;35382;51.484;11.476;2024-02-04T04:33:29;27.60;;;11.02;;
49488;SDS011;35382;51.484;11.476;2024-02-04T04:35:55;27.15;;;11.35;;
49488;SDS011;35382;51.484;11.476;2024-02-04T04:38:20;31.20;;;10.18;;
49488;SDS011;35382;51.484;11.476;2024-02-04T04:40:46;25.73;;;9.75;;
49488;SDS011;35382;51.484;11.476;2024-02-04T04:43:11;22.73;;;10.05;;
49488;SDS011;35382;51.484;11.476;2024-02-04T04:45:37;22.05;;;10.48;;
49488;SDS011;35382;51.484;11.476;2024-02-04T04:48:05;23.60;;;10.18;;
49488;SDS011;35382;51.484;11.476;2024-02-04T04:50:30;24.20;;;10.48;;
49488;SDS011;35382;51.484;11.476;2024-02-04T04:52:56;30.40;;;10.15;;
49488;SDS011;35382;51.484;11.476;2024-02-04T04:55:21;25.95;;;10.60;;
49488;SDS011;35382;51.484;11.476;2024-02-04T04:57:47;28.27;;;11.45;;
49488;SDS011;35382;51.484;11.476;2024-02-04T05:00:12;26.40;;;11.25;;
49488;SDS011;35382;51.484;11.476;2024-02-04T05:02:41;25.95;;;12.07;;
49488;SDS011;35382;51.484;11.476;2024-02-04T05:05:07;25.85;;;10.85;;
49488;SDS011;35382;51.484;11.476;2024-02-04T05:07:32;24.40;;;10.05;;
49488;SDS011;35382;51.484;11.476;2024-02-04T05:09:58;30.35;;;10.80;;
49488;SDS011;35382;51.484;11.476;2024-02-04T05:12:23;24.40;;;9.65;;
49488;SDS011;35382;51.484;11.476;2024-02-04T05:14:48;25.13;;;10.45;;
49488;SDS011;35382;51.484;11.476;2024-02-04T05:17:14;30.45;;;11.70;;
49488;SDS011;35382;51.484;11.476;2024-02-04T05:19:42;26.92;;;11.25;;
49488;SDS011;35382;51.484;11.476;2024-02-04T05:22:07;25.85;;;11.35;;
49488;SDS011;35382;51.484;11.476;2024-02-04T05:24:33;34.10;;;11.85;;
49488;SDS011;35382;51.484;11.476;2024-02-04T05:26:58;29.95;;;11.45;;
49488;SDS011;35382;51.484;11.476;2024-02-04T05:29:23;28.20;;;11.45;;
49488;SDS011;35382;51.484;11.476;2024-02-04T05:31:51;29.42;;;11.73;;
49488;SDS011;35382;51.484;11.476;2024-02-04T05:34:17;28.08;;;11.20;;
49488;SDS011;35382;51.484;11.476;2024-02-04T05:36:42;27.40;;;11.20;;
49488;SDS011;35382;51.484;11.476;2024-02-04T05:39:11;30.45;;;12.20;;
49488;SDS011;35382;51.484;11.476;2024-02-04T05:41:38;30.65;;;12.05;;
49488;SDS011;35382;51.484;11.476;2024-02-04T05:44:03;35.63;;;12.80;;
49488;SDS011;35382;51.484;11.476;2024-02-04T05:46:29;31.92;;;12.05;;
49488;SDS011;35382;51.484;11.476;2024-02-04T05:48:54;31.20;;;12.13;;
49488;SDS011;35382;51.484;11.476;2024-02-04T05:51:20;30.65;;;12.10;;
49488;SDS011;35382;51.484;11.476;2024-02-04T05:53:45;35.00;;;11.85;;
49488;SDS011;35382;51.484;11.476;2024-02-04T05:56:10;31.17;;;12.07;;
49488;SDS011;35382;51.484;11.476;2024-02-04T05:58:36;31.35;;;12.55;;
49488;SDS011;35382;51.484;11.476;2024-02-04T06:01:02;28.98;;;11.50;;
49488;SDS011;35382;51.484;11.476;2024-02-04T06:03:27;23.65;;;9.77;;
49488;SDS011;35382;51.484;11.476;2024-02-04T06:05:53;27.50;;;10.93;;
49488;SDS011;35382;51.484;11.476;2024-02-04T06:08:19;27.25;;;11.23;;
49488;SDS011;35382;51.484;11.476;2024-02-04T06:10:44;22.80;;;10.07;;
49488;SDS011;35382;51.484;11.476;2024-02-04T06:13:10;26.45;;;10.80;;
49488;SDS011;35382;51.484;11.476;2024-02-04T06:15:35;22.23;;;10.70;;
49488;SDS011;35382;51.484;11.476;2024-02-04T06:18:00;22.55;;;9.65;;
49488;SDS011;35382;51.484;11.476;2024-02-04T06:20:26;22.77;;;9.85;;
49488;SDS011;35382;51.484;11.476;2024-02-04T06:22:51;20.83;;;10.20;;
49488;SDS011;35382;51.484;11.476;2024-02-04T06:25:17;22.75;;;9.50;;
49488;SDS011;35382;51.484;11.476;2024-02-04T06:27:42;18.40;;;8.90;;
49488;SDS011;35382;51.484;11.476;2024-02-04T06:30:08;19.00;;;9.55;;
49488;SDS011;35382;51.484;11.476;2024-02-04T06:32:33;20.00;;;9.07;;
49488;SDS011;35382;51.484;11.476;2024-02-04T06:34:59;17.33;;;9.07;;
49488;SDS011;35382;51.484;11.476;2024-02-04T06:37:24;15.85;;;8.40;;
49488;SDS011;35382;51.484;11.476;2024-02-04T06:39:50;16.00;;;7.78;;
49488;SDS011;35382;51.484;11.476;2024-02-04T06:42:15;16.52;;;7.78;;
49488;SDS011;35382;51.484;11.476;2024-02-04T06:44:44;14.65;;;7.40;;
49488;SDS011;35382;51.484;11.476;2024-02-04T06:47:10;15.90;;;7.35;;
49488;SDS011;35382;51.484;11.476;2024-02-04T06:49:35;14.20;;;7.00;;
49488;SDS011;35382;51.484;11.476;2024-02-04T06:52:00;12.35;;;6.18;;
49488;SDS011;35382;51.484;11.476;2024-02-04T06:54:26;11.50;;;5.93;;
49488;SDS011;35382;51.484;11.476;2024-02-04T06:56:51;10.05;;;5.88;;
49488;SDS011;35382;51.484;11.476;2024-02-04T06:59:17;9.77;;;5.47;;
49488;SDS011;35382;51.484;11.476;2024-02-04T07:01:42;10.30;;;5.50;;
49488;SDS011;35382;51.484;11.476;2024-02-04T07:04:07;9.93;;;5.57;;
49488;SDS011;35382;51.484;11.476;2024-02-04T07:06:33;10.40;;;5.20;;
49488;SDS011;35382;51.484;11.476;2024-02-04T07:08:58;9.25;;;4.93;;
49488;SDS011;35382;51.484;11.476;2024-02-04T07:11:24;10.57;;;5.28;;
49488;SDS011;35382;51.484;11.476;2024-02-04T07:13:49;10.10;;;5.13;;
49488;SDS011;35382;51.484;11.476;2024-02-04T07:16:15;9.68;;;5.30;;
49488;SDS011;35382;51.484;11.476;2024-02-04T07:18:40;9.13;;;4.78;;
49488;SDS011;35382;51.484;11.476;2024-02-04T07:21:05;8.52;;;4.72;;
49488;SDS011;35382;51.484;11.476;2024-02-04T07:23:31;10.10;;;5.15;;
49488;SDS011;35382;51.484;11.476;2024-02-04T07:25:56;8.30;;;4.57;;
49488;SDS011;35382;51.484;11.476;2024-02-04T07:28:21;7.80;;;4.10;;
49488;SDS011;35382;51.484;11.476;2024-02-04T07:30:47;8.05;;;4.30;;
49488;SDS011;35382;51.484;11.476;2024-02-04T07:33:12;9.40;;;6.00;;
49488;SDS011;35382;51.484;11.476;2024-02-04T07:35:38;11.23;;;5.63;;
49488;SDS011;35382;51.484;11.476;2024-02-04T07:38:04;9.02;;;5.05;;
49488;SDS011;35382;51.484;11.476;2024-02-04T07:40:29;8.27;;;4.95;;
49488;SDS011;35382;51.484;11.476;2024-02-04T07:42:54;9.13;;;4.50;;
49488;SDS011;35382;51.484;11.476;2024-02-04T07:45:20;9.38;;;4.90;;
49488;SDS011;35382;51.484;11.476;2024-02-04T07:47:45;8.02;;;4.50;;
49488;SDS011;35382;51.484;11.476;2024-02-04T07:50:11;9.75;;;4.78;;
49488;SDS011;35382;51.484;11.476;2024-02-04T07:52:36;9.07;;;4.95;;
49488;SDS011;35382;51.484;11.476;2024-02-04T07:55:01;7.65;;;4.65;;
49488;SDS011;35382;51.484;11.476;2024-02-04T07:57:27;8.32;;;5.10;;
49488;SDS011;35382;51.484;11.476;2024-02-04T07:59:52;9.90;;;5.55;;
49488;SDS011;35382;51.484;11.476;2024-02-04T08:02:17;9.68;;;5.40;;
49488;SDS011;35382;51.484;11.476;2024-02-04T08:04:43;8.45;;;5.05;;
49488;SDS011;35382;51.484;11.476;2024-02-04T08:07:11;9.10;;;4.57;;
49488;SDS011;35382;51.484;11.476;2024-02-04T08:09:36;8.45;;;4.88;;
49488;SDS011;35382;51.484;11.476;2024-02-04T08:12:02;8.98;;;5.13;;
49488;SDS011;35382;51.484;11.476;2024-02-04T08:14:27;7.95;;;4.80;;
49488;SDS011;35382;51.484;11.476;2024-02-04T08:16:52;9.75;;;5.75;;
49488;SDS011;35382;51.484;11.476;2024-02-04T08:19:18;9.60;;;5.18;;
49488;SDS011;35382;51.484;11.476;2024-02-04T08:21:43;7.20;;;4.50;;
49488;SDS011;35382;51.484;11.476;2024-02-04T08:24:09;7.72;;;4.50;;
49488;SDS011;35382;51.484;11.476;2024-02-04T08:26:34;8.85;;;4.85;;
49488;SDS011;35382;51.484;11.476;2024-02-04T08:28:59;10.45;;;5.05;;
49488;SDS011;35382;51.484;11.476;2024-02-04T08:31:25;8.73;;;5.43;;
49488;SDS011;35382;51.484;11.476;2024-02-04T08:33:51;9.10;;;4.63;;
49488;SDS011;35382;51.484;11.476;2024-02-04T08:36:16;9.88;;;4.70;;
49488;SDS011;35382;51.484;11.476;2024-02-04T08:38:41;8.52;;;4.45;;
49488;SDS011;35382;51.484;11.476;2024-02-04T08:41:07;10.10;;;5.10;;
49488;SDS011;35382;51.484;11.476;2024-02-04T08:43:32;9.48;;;4.85;;
49488;SDS011;35382;51.484;11.476;2024-02-04T08:45:57;7.80;;;4.28;;
49488;SDS011;35382;51.484;11.476;2024-02-04T08:48:23;9.15;;;5.38;;
49488;SDS011;35382;51.484;11.476;2024-02-04T08:50:51;9.57;;;5.45;;
49488;SDS011;35382;51.484;11.476;2024-02-04T08:53:16;11.15;;;6.03;;
49488;SDS011;35382;51.484;11.476;2024-02-04T08:55:42;10.13;;;5.53;;
49488;SDS011;35382;51.484;11.476;2024-02-04T08:58:07;10.80;;;6.07;;
49488;SDS011;35382;51.484;11.476;2024-02-04T09:00:32;9.77;;;5.55;;
49488;SDS011;35382;51.484;11.476;2024-02-04T09:03:01;12.05;;;6.10;;
49488;SDS011;35382;51.484;11.476;2024-02-04T09:05:26;9.65;;;5.05;;
49488;SDS011;35382;51.484;11.476;2024-02-04T09:07:51;12.60;;;5.93;;
49488;SDS011;35382;51.484;11.476;2024-02-04T09:10:17;10.52;;;5.90;;
49488;SDS011;35382;51.484;11.476;2024-02-04T09:12:42;10.40;;;5.78;;
49488;SDS011;35382;51.484;11.476;2024-02-04T09:15:07;10.13;;;5.57;;
49488;SDS011;35382;51.484;11.476;2024-02-04T09:17:33;9.20;;;5.10;;
49488;SDS011;35382;51.484;11.476;2024-02-04T09:19:59;9.23;;;5.22;;
49488;SDS011;35382;51.484;11.476;2024-02-04T09:22:24;10.05;;;5.38;;
49488;SDS011;35382;51.484;11.476;2024-02-04T09:24:50;9.57;;;5.40;;
49488;SDS011;35382;51.484;11.476;2024-02-04T09:27:16;9.73;;;5.68;;
49488;SDS011;35382;51.484;11.476;2024-02-04T09:29:41;10.18;;;5.65;;
49488;SDS011;35382;51.484;11.476;2024-02-04T09:32:07;11.30;;;4.78;;
49488;SDS011;35382;51.484;11.476;2024-02-04T09:34:32;9.38;;;5.03;;
49488;SDS011;35382;51.484;11.476;2024-02-04T09:36:57;10.48;;;5.60;;
49488;SDS011;35382;51.484;11.476;2024-02-04T09:39:23;9.75;;;4.55;;
49488;SDS011;35382;51.484;11.476;2024-02-04T09:41:48;8.48;;;4.18;;
49488;SDS011;35382;51.484;11.476;2024-02-04T09:44:13;11.10;;;5.38;;
49488;SDS011;35382;51.484;11.476;2024-02-04T09:46:40;10.57;;;5.95;;
49488;SDS011;35382;51.484;11.476;2024-02-04T09:49:05;10.05;;;5.70;;
49488;SDS011;35382;51.484;11.476;2024-02-04T09:51:32;11.77;;;5.57;;
49488;SDS011;35382;51.484;11.476;2024-02-04T09:53:58;10.55;;;5.85;;
49488;SDS011;35382;51.484;11.476;2024-02-04T09:56:28;11.77;;;6.40;;
49488;SDS011;35382;51.484;11.476;2024-02-04T09:58:55;11.57;;;6.10;;
49488;SDS011;35382;51.484;11.476;2024-02-04T10:01:21;10.63;;;6.05;;
49488;SDS011;35382;51.484;11.476;2024-02-04T10:03:48;11.13;;;6.50;;
49488;SDS011;35382;51.484;11.476;2024-02-04T10:06:13;11.98;;;6.95;;
49488;SDS011;35382;51.484;11.476;2024-02-04T10:08:39;13.73;;;6.93;;
49488;SDS011;35382;51.484;11.476;2024-02-04T10:11:05;11.98;;;6.95;;
49488;SDS011;35382;51.484;11.476;2024-02-04T10:13:30;12.50;;;8.15;;
49488;SDS011;35382;51.484;11.476;2024-02-04T10:16:06;15.40;;;7.38;;
49488;SDS011;35382;51.484;11.476;2024-02-04T10:18:32;13.23;;;7.72;;
49488;SDS011;35382;51.484;11.476;2024-02-04T10:20:58;13.30;;;8.10;;
49488;SDS011;35382;51.484;11.476;2024-02-04T10:23:23;13.52;;;8.05;;
49488;SDS011;35382;51.484;11.476;2024-02-04T10:25:56;15.77;;;7.55;;
49488;SDS011;35382;51.484;11.476;2024-02-04T10:28:23;13.40;;;7.15;;
49488;SDS011;35382;51.484;11.476;2024-02-04T10:30:48;10.68;;;6.53;;
49488;SDS011;35382;51.484;11.476;2024-02-04T10:33:14;11.98;;;6.60;;
49488;SDS011;35382;51.484;11.476;2024-02-04T10:35:42;10.27;;;5.57;;
49488;SDS011;35382;51.484;11.476;2024-02-04T10:38:07;10.57;;;6.20;;
49488;SDS011;35382;51.484;11.476;2024-02-04T10:40:33;12.38;;;6.20;;
49488;SDS011;35382;51.484;11.476;2024-02-04T10:42:59;9.88;;;5.93;;
49488;SDS011;35382;51.484;11.476;2024-02-04T10:45:28;9.15;;;5.25;;
49488;SDS011;35382;51.484;11.476;2024-02-04T10:47:57;9.45;;;4.90;;
49488;SDS011;35382;51.484;11.476;2024-02-04T10:50:26;8.52;;;4.80;;
49488;SDS011;35382;51.484;11.476;2024-02-04T10:52:53;9.07;;;4.93;;
49488;SDS011;35382;51.484;11.476;2024-02-04T10:55:25;8.05;;;4.40;;
49488;SDS011;35382;51.484;11.476;2024-02-04T10:57:53;8.35;;;5.07;;
49488;SDS011;35382;51.484;11.476;2024-02-04T11:00:22;7.10;;;3.85;;
49488;SDS011;35382;51.484;11.476;2024-02-04T11:02:47;8.05;;;4.35;;
49488;SDS011;35382;51.484;11.476;2024-02-04T11:05:14;8.48;;;5.22;;
49488;SDS011;35382;51.484;11.476;2024-02-04T11:07:40;8.25;;;4.70;;
49488;SDS011;35382;51.484;11.476;2024-02-04T11:10:06;9.85;;;5.38;;
49488;SDS011;35382;51.484;11.476;2024-02-04T11:12:32;9.20;;;5.30;;
49488;SDS011;35382;51.484;11.476;2024-02-04T11:15:01;10.50;;;5.82;;
49488;SDS011;35382;51.484;11.476;2024-02-04T11:20:17;9.27;;;6.15;;
49488;SDS011;35382;51.484;11.476;2024-02-04T11:25:54;9.43;;;5.13;;
49488;SDS011;35382;51.484;11.476;2024-02-04T11:28:22;9.27;;;5.38;;
49488;SDS011;35382;51.484;11.476;2024-02-04T11:30:48;10.05;;;5.18;;
49488;SDS011;35382;51.484;11.476;2024-02-04T11:33:18;7.07;;;4.05;;
49488;SDS011;35382;51.484;11.476;2024-02-04T11:35:46;6.93;;;4.10;;
49488;SDS011;35382;51.484;11.476;2024-02-04T11:38:11;6.45;;;3.60;;
49488;SDS011;35382;51.484;11.476;2024-02-04T11:40:37;6.35;;;3.30;;
49488;SDS011;35382;51.484;11.476;2024-02-04T11:43:06;6.55;;;3.17;;
49488;SDS011;35382;51.484;11.476;2024-02-04T11:45:32;5.28;;;2.70;;
49488;SDS011;35382;51.484;11.476;2024-02-04T11:48:02;4.07;;;1.77;;
49488;SDS011;35382;51.484;11.476;2024-02-04T11:50:29;4.00;;;2.55;;
49488;SDS011;35382;51.484;11.476;2024-02-04T11:53:01;2.88;;;1.95;;
49488;SDS011;35382;51.484;11.476;2024-02-04T11:55:30;3.85;;;1.60;;
49488;SDS011;35382;51.484;11.476;2024-02-04T11:57:55;4.35;;;1.80;;
49488;SDS011;35382;51.484;11.476;2024-02-04T12:00:21;4.80;;;1.60;;
49488;SDS011;35382;51.484;11.476;2024-02-04T12:02:47;3.17;;;1.67;;
49488;SDS011;35382;51.484;11.476;2024-02-04T12:05:12;2.50;;;1.58;;
49488;SDS011;35382;51.484;11.476;2024-02-04T12:07:38;3.95;;;1.50;;
49488;SDS011;35382;51.484;11.476;2024-02-04T12:12:31;4.70;;;1.83;;
49488;SDS011;35382;51.484;11.476;2024-02-04T12:14:56;3.78;;;1.77;;
49488;SDS011;35382;51.484;11.476;2024-02-04T12:17:23;3.90;;;1.90;;
49488;SDS011;35382;51.484;11.476;2024-02-04T12:19:48;5.78;;;2.00;;
49488;SDS011;35382;51.484;11.476;2024-02-04T12:22:13;4.07;;;1.88;;
49488;SDS011;35382;51.484;11.476;2024-02-04T12:24:39;3.95;;;1.92;;
49488;SDS011;35382;51.484;11.476;2024-02-04T12:27:05;5.47;;;2.35;;
49488;SDS011;35382;51.484;11.476;2024-02-04T12:29:31;5.38;;;2.25;;
49488;SDS011;35382;51.484;11.476;2024-02-04T12:31:57;4.22;;;1.83;;
49488;SDS011;35382;51.484;11.476;2024-02-04T12:34:29;4.90;;;1.90;;
49488;SDS011;35382;51.484;11.476;2024-02-04T12:36:58;5.80;;;2.20;;
49488;SDS011;35382;51.484;11.476;2024-02-04T12:39:25;5.22;;;2.22;;
49488;SDS011;35382;51.484;11.476;2024-02-04T12:41:50;4.72;;;2.25;;
49488;SDS011;35382;51.484;11.476;2024-02-04T12:44:17;4.78;;;2.13;;
49488;SDS011;35382;51.484;11.476;2024-02-04T12:46:43;5.22;;;2.08;;
49488;SDS011;35382;51.484;11.476;2024-02-04T12:49:08;6.63;;;2.53;;
49488;SDS011;35382;51.484;11.476;2024-02-04T12:51:34;4.93;;;2.50;;
49488;SDS011;35382;51.484;11.476;2024-02-04T12:56:27;4.30;;;2.00;;
49488;SDS011;35382;51.484;11.476;2024-02-04T12:58:53;4.82;;;2.10;;
49488;SDS011;35382;51.484;11.476;2024-02-04T13:01:18;5.10;;;2.35;;
49488;SDS011;35382;51.484;11.476;2024-02-04T13:03:43;4.47;;;2.60;;
49488;SDS011;35382;51.484;11.476;2024-02-04T13:06:09;4.65;;;1.95;;
49488;SDS011;35382;51.484;11.476;2024-02-04T13:08:34;5.55;;;2.35;;
49488;SDS011;35382;51.484;11.476;2024-02-04T13:10:59;5.38;;;2.13;;
49488;SDS011;35382;51.484;11.476;2024-02-04T13:13:25;4.97;;;2.08;;
49488;SDS011;35382;51.484;11.476;2024-02-04T13:15:50;5.07;;;2.00;;
49488;SDS011;35382;51.484;11.476;2024-02-04T13:18:15;3.65;;;1.48;;
49488;SDS011;35382;51.484;11.476;2024-02-04T13:20:41;5.63;;;1.40;;
49488;SDS011;35382;51.484;11.476;2024-02-04T13:23:07;3.97;;;1.70;;
49488;SDS011;35382;51.484;11.476;2024-02-04T13:25:33;3.25;;;1.50;;
49488;SDS011;35382;51.484;11.476;2024-02-04T13:27:58;3.85;;;1.45;;
49488;SDS011;35382;51.484;11.476;2024-02-04T13:30:24;4.55;;;1.50;;
49488;SDS011;35382;51.484;11.476;2024-02-04T13:32:50;4.82;;;1.58;;
49488;SDS011;35382;51.484;11.476;2024-02-04T13:35:16;3.80;;;1.48;;
49488;SDS011;35382;51.484;11.476;2024-02-04T13:37:42;2.70;;;1.48;;
49488;SDS011;35382;51.484;11.476;2024-02-04T13:40:09;3.15;;;1.60;;
49488;SDS011;35382;51.484;11.476;2024-02-04T13:42:35;3.20;;;1.52;;
49488;SDS011;35382;51.484;11.476;2024-02-04T13:45:00;4.65;;;1.52;;
49488;SDS011;35382;51.484;11.476;2024-02-04T13:47:26;4.47;;;1.40;;
49488;SDS011;35382;51.484;11.476;2024-02-04T13:49:51;3.28;;;1.65;;
49488;SDS011;35382;51.484;11.476;2024-02-04T13:52:16;3.80;;;1.80;;
49488;SDS011;35382;51.484;11.476;2024-02-04T13:54:42;4.32;;;1.75;;
49488;SDS011;35382;51.484;11.476;2024-02-04T13:57:07;3.97;;;1.80;;
49488;SDS011;35382;51.484;11.476;2024-02-04T13:59:34;3.00;;;1.70;;
49488;SDS011;35382;51.484;11.476;2024-02-04T14:01:59;3.70;;;1.60;;
49488;SDS011;35382;51.484;11.476;2024-02-04T14:04:25;5.15;;;1.75;;
49488;SDS011;35382;51.484;11.476;2024-02-04T14:06:50;3.13;;;1.50;;
49488;SDS011;35382;51.484;11.476;2024-02-04T14:09:15;3.90;;;1.92;;
49488;SDS011;35382;51.484;11.476;2024-02-04T14:11:41;3.33;;;1.75;;
49488;SDS011;35382;51.484;11.476;2024-02-04T14:14:08;3.95;;;2.03;;
49488;SDS011;35382;51.484;11.476;2024-02-04T14:16:34;4.57;;;1.58;;
49488;SDS011;35382;51.484;11.476;2024-02-04T14:18:59;2.72;;;1.60;;
49488;SDS011;35382;51.484;11.476;2024-02-04T14:21:24;4.47;;;1.80;;
49488;SDS011;35382;51.484;11.476;2024-02-04T14:23:50;5.47;;;2.13;;
49488;SDS011;35382;51.484;11.476;2024-02-04T14:26:16;5.43;;;2.10;;
49488;SDS011;35382;51.484;11.476;2024-02-04T14:28:45;8.15;;;2.60;;
49488;SDS011;35382;51.484;11.476;2024-02-04T14:31:10;5.57;;;3.10;;